In Rescue
 
Open Full Screen Window  High Contrast Mode
Wind Gusting 00 knots
03
June 20, 2021 10:58 AM EDT
Weather Information
Wind Direction
  330 °
Wind Speed
  03 kt (3 mph)
Wind Gust
  00 kt (0 mph)
Altimeter
29.76 in
Visibility
10 SM
Temperature
25° C
77° F
Dewpoint
18° C
64° F
Humidity
65%
Sky Condition
Broken @ 3,800 ft
Broken @ 3,100 ft
Broken @ 2,400 ft
MVFR

METAR KRNP 201458Z AUTO 33003KT 10SM BKN024 BKN031 BKN038 25/18 A2976 RMK AO2 T02490178

FAA Disclaimer: The data displayed is for advisory purposes only and is not to be used for flight planning or operations.